MSC Gina — 3FLY9 — position and weather

sailwx.info

Track history (hours):
 
Tides and Currents Weather Stations Pressure Air Temp Water Temp Dewpoint Dewpoint Depression Visibility Wind Speed Wind Dir Waves Ship Positions

MSC Gina

Last reported at 2015-Aug-28 12:33 UTC. Time now 2015-Aug-28 12:46 UTC.
Position N 37°39' W 000°30'.

Length 259 m; draft 7.8 m.

Type: Ship (hazmat cat A). MMSI: 357542000.

Date/timePositionNaut miles runAvg speedWind from/ knotsBaromVisibWave heightAir tempDewpointWater temp
2015-Aug-28 12:33N 37°39' W 000°30'1413.7
2015-Aug-28 11:33N 37°51' W 000°21'1212.4
2015-Aug-28 10:32N 38°02' W 000°12'1513.3
2015-Aug-28 09:26N 38°14' W 000°02'1315.0
2015-Aug-28 08:33N 38°25' E 000°08'1514.9
2015-Aug-28 07:34N 38°37' E 000°18'4414.2
2015-Aug-28 04:26N 39°18' W 000°04'1315.0
2015-Aug-28 03:33N 39°26' W 000°18'1 1.3
2015-Aug-28 02:34N 39°26' W 000°19'0 0.0
2015-Aug-28 01:34N 39°26' W 000°19'0 0.0
2015-Aug-28 00:34N 39°26' W 000°19'0 0.0
2015-Aug-27 23:34N 39°26' W 000°19'0 0.0
2015-Aug-27 22:34N 39°26' W 000°19'0 0.0
2015-Aug-27 21:33N 39°26' W 000°19'0 0.0
2015-Aug-27 20:34N 39°26' W 000°19'0 0.0
2015-Aug-27 19:33N 39°26' W 000°19'0 0.0
2015-Aug-27 18:34N 39°26' W 000°19'0 0.0
2015-Aug-27 17:34N 39°26' W 000°19'0 0.0
2015-Aug-27 16:32N 39°26' W 000°19'0 0.0
2015-Aug-27 15:33N 39°26' W 000°19'0 0.0
2015-Aug-27 14:33N 39°26' W 000°19'0 0.0
2015-Aug-27 13:34N 39°26' W 000°19'0 0.0
2015-Aug-27 12:34N 39°26' W 000°19'0 0.0
2015-Aug-27 11:34N 39°26' W 000°19'2 1.7
2015-Aug-27 10:34N 39°25' W 000°17'5217.2
2015-Aug-27 07:33N 39°44' E 000°45'2020.2
2015-Aug-27 06:33N 39°59' E 001°03'2020.5
2015-Aug-27 05:33N 40°16' E 001°18'2220.8
2015-Aug-27 04:29N 40°34' E 001°34'2020.8
2015-Aug-27 03:33N 40°50' E 001°49'2120.7
2015-Aug-27 02:33N 41°07' E 002°05'12 5.5
2015-Aug-27 00:23N 41°19' E 002°09'0 0.0
2015-Aug-26 23:33N 41°19' E 002°09'0 0.0
2015-Aug-26 22:33N 41°19' E 002°09'0 0.0
2015-Aug-26 21:33N 41°19' E 002°09'0 0.0
2015-Aug-26 20:33N 41°19' E 002°09'0 0.0
2015-Aug-26 19:33N 41°19' E 002°09'0 0.0
2015-Aug-26 18:33N 41°19' E 002°09'0 0.0
2015-Aug-26 17:33N 41°19' E 002°09'0 0.0
2015-Aug-26 16:33N 41°19' E 002°09'2 2.1
2015-Aug-26 15:25N 41°17' E 002°12'3712.7
2015-Aug-26 12:31N 41°34' E 002°56'1515.7
2015-Aug-26 11:33N 41°40' E 003°14'1615.2
2015-Aug-26 10:30N 41°47' E 003°33'1414.6
2015-Aug-26 09:33N 41°53' E 003°50'1110.6
2015-Aug-26 08:33N 41°57' E 004°03'1413.9
2015-Aug-26 07:34N 42°03' E 004°20'2215.4
2015-Aug-26 06:08N 42°12' E 004°47'3321.1
2015-Aug-26 04:33N 42°26' E 005°28'2920.8
2015-Aug-26 03:11N 42°38' E 006°03'1421.2
2015-Aug-26 02:33N 42°44' E 006°20'2121.6
2015-Aug-26 01:34N 42°53' E 006°46'2121.3
2015-Aug-26 00:34N 43°03' E 007°12'2120.9
2015-Aug-25 23:32N 43°12' E 007°38'2220.5
2015-Aug-25 22:29N 43°22' E 008°05'1615.1
2015-Aug-25 21:25N 43°29' E 008°25'73 9.1
2015-Aug-25 13:26N 44°06' E 009°51'0 0.0
2015-Aug-25 12:32N 44°06' E 009°51'292 9.0
2015-Aug-24 04:11N 40°04' E 013°29'1421.6
2015-Aug-24 03:34N 39°55' E 013°42'9021.5
2015-Aug-23 23:23N 38°60' E 015°14'1821.3
2015-Aug-23 22:33N 38°47' E 015°29'2121.5
2015-Aug-23 21:33N 38°31' E 015°48'7 6.6
2015-Aug-23 20:33N 38°27' E 015°54'0 0.0
2015-Aug-23 19:34N 38°27' E 015°54'0 0.0
2015-Aug-23 18:34N 38°27' E 015°54'0 0.0
2015-Aug-23 17:33N 38°27' E 015°54'0 0.0
2015-Aug-23 16:34N 38°27' E 015°54'0 0.0
2015-Aug-23 15:33N 38°27' E 015°54'0 0.0
2015-Aug-23 14:34N 38°27' E 015°54'0 0.0
2015-Aug-23 13:34N 38°27' E 015°54'0 0.0
2015-Aug-23 12:33N 38°27' E 015°54'0 0.0
2015-Aug-23 11:33N 38°27' E 015°54'0 0.0
2015-Aug-23 10:34N 38°27' E 015°54'0 0.0
2015-Aug-23 09:33N 38°27' E 015°54'0 0.0
2015-Aug-23 08:34N 38°27' E 015°54'0 0.0
2015-Aug-23 07:33N 38°27' E 015°54'0 0.0
2015-Aug-23 06:33N 38°27' E 015°54'0 0.0
2015-Aug-23 05:33N 38°27' E 015°54'0 0.0
2015-Aug-23 04:33N 38°27' E 015°54'138 9.8
2015-Aug-22 14:24N 40°20' E 014°11'1112.8
2015-Aug-22 13:34N 40°29' E 014°05'1212.0
2015-Aug-22 12:33N 40°40' E 014°11'11 3.6
2015-Aug-22 09:32N 40°50' E 014°17'0 0.0
2015-Aug-22 08:26N 40°50' E 014°17'0 0.0
2015-Aug-22 07:33N 40°50' E 014°17'0 0.3
2015-Aug-22 06:19N 40°50' E 014°17'6 8.5
2015-Aug-22 05:33N 40°45' E 014°13'1313.3
2015-Aug-22 04:33N 40°36' E 013°59'2019.6
2015-Aug-22 03:33N 40°26' E 013°37'26620.2
2015-Aug-21 14:26N 38°24' E 008°31'23020.3
2015-Aug-21 03:08N 37°31' E 003°48'1219.8
2015-Aug-21 02:33N 37°28' E 003°34'8420.0
2015-Aug-20 22:21N 37°08' E 001°51'1720.1
2015-Aug-20 21:30N 37°05' E 001°30'2020.6
2015-Aug-20 20:33N 36°60' E 001°07'4919.7
2015-Aug-20 18:03N 36°48' E 000°07'2919.2
2015-Aug-20 16:33N 36°41' W 000°28'2019.4
2015-Aug-20 15:31N 36°37' W 000°53'2019.7
2015-Aug-20 14:29N 36°32' W 001°17'27416.0
2015-Aug-19 21:21N 35°60' W 006°55'1114.3
2015-Aug-19 20:33N 36°01' W 007°09'1414.0
2015-Aug-19 19:33N 36°04' W 007°26'1414.0
2015-Aug-19 18:33N 36°07' W 007°43'1414.0
2015-Aug-19 17:33N 36°09' W 007°60'3015.2
2015-Aug-19 15:33N 36°15' W 008°37'2019.8
2015-Aug-19 14:33N 36°21' W 009°00'2019.7
2015-Aug-19 13:33N 36°25' W 009°24'1919.3
2015-Aug-19 12:33N 36°32' W 009°47'2619.4
2015-Aug-19 11:14N 36°41' W 010°16'6219.9
2015-Aug-19 08:08N 37°08' W 011°26'1319.4
2015-Aug-19 07:29N 37°14' W 011°40'1819.2
2015-Aug-19 06:33N 37°21' W 012°01'  
Track history (hours):
 
Tides and Currents Weather Stations Pressure Air Temp Water Temp Dewpoint Dewpoint Depression Visibility Wind Speed Wind Dir Waves Ship Positions

MSC Gina

Last reported at 2015-Aug-28 12:33 UTC. Time now 2015-Aug-28 12:46 UTC.
Position N 37°39' W 000°30'.

Length 259 m; draft 7.8 m.

Type: Ship (hazmat cat A). MMSI: 357542000.

Date/timePositionNaut miles runAvg speedWind from/ knotsBaromVisibWave heightAir tempDewpointWater temp
2015-Aug-28 12:33N 37°39' W 000°30'1413.7
2015-Aug-28 11:33N 37°51' W 000°21'1212.4
2015-Aug-28 10:32N 38°02' W 000°12'1513.3
2015-Aug-28 09:26N 38°14' W 000°02'1315.0
2015-Aug-28 08:33N 38°25' E 000°08'1514.9
2015-Aug-28 07:34N 38°37' E 000°18'4414.2
2015-Aug-28 04:26N 39°18' W 000°04'1315.0
2015-Aug-28 03:33N 39°26' W 000°18'1 1.3
2015-Aug-28 02:34N 39°26' W 000°19'0 0.0
2015-Aug-28 01:34N 39°26' W 000°19'0 0.0
2015-Aug-28 00:34N 39°26' W 000°19'0 0.0
2015-Aug-27 23:34N 39°26' W 000°19'0 0.0
2015-Aug-27 22:34N 39°26' W 000°19'0 0.0
2015-Aug-27 21:33N 39°26' W 000°19'0 0.0
2015-Aug-27 20:34N 39°26' W 000°19'0 0.0
2015-Aug-27 19:33N 39°26' W 000°19'0 0.0
2015-Aug-27 18:34N 39°26' W 000°19'0 0.0
2015-Aug-27 17:34N 39°26' W 000°19'0 0.0
2015-Aug-27 16:32N 39°26' W 000°19'0 0.0
2015-Aug-27 15:33N 39°26' W 000°19'0 0.0
2015-Aug-27 14:33N 39°26' W 000°19'0 0.0
2015-Aug-27 13:34N 39°26' W 000°19'0 0.0
2015-Aug-27 12:34N 39°26' W 000°19'0 0.0
2015-Aug-27 11:34N 39°26' W 000°19'2 1.7
2015-Aug-27 10:34N 39°25' W 000°17'5217.2
2015-Aug-27 07:33N 39°44' E 000°45'2020.2
2015-Aug-27 06:33N 39°59' E 001°03'2020.5
2015-Aug-27 05:33N 40°16' E 001°18'2220.8
2015-Aug-27 04:29N 40°34' E 001°34'2020.8
2015-Aug-27 03:33N 40°50' E 001°49'2120.7
2015-Aug-27 02:33N 41°07' E 002°05'12 5.5
2015-Aug-27 00:23N 41°19' E 002°09'0 0.0
2015-Aug-26 23:33N 41°19' E 002°09'0 0.0
2015-Aug-26 22:33N 41°19' E 002°09'0 0.0
2015-Aug-26 21:33N 41°19' E 002°09'0 0.0
2015-Aug-26 20:33N 41°19' E 002°09'0 0.0
2015-Aug-26 19:33N 41°19' E 002°09'0 0.0
2015-Aug-26 18:33N 41°19' E 002°09'0 0.0
2015-Aug-26 17:33N 41°19' E 002°09'0 0.0
2015-Aug-26 16:33N 41°19' E 002°09'2 2.1
2015-Aug-26 15:25N 41°17' E 002°12'3712.7
2015-Aug-26 12:31N 41°34' E 002°56'1515.7
2015-Aug-26 11:33N 41°40' E 003°14'1615.2
2015-Aug-26 10:30N 41°47' E 003°33'1414.6
2015-Aug-26 09:33N 41°53' E 003°50'1110.6
2015-Aug-26 08:33N 41°57' E 004°03'1413.9
2015-Aug-26 07:34N 42°03' E 004°20'2215.4
2015-Aug-26 06:08N 42°12' E 004°47'3321.1
2015-Aug-26 04:33N 42°26' E 005°28'2920.8
2015-Aug-26 03:11N 42°38' E 006°03'1421.2
2015-Aug-26 02:33N 42°44' E 006°20'2121.6
2015-Aug-26 01:34N 42°53' E 006°46'2121.3
2015-Aug-26 00:34N 43°03' E 007°12'2120.9
2015-Aug-25 23:32N 43°12' E 007°38'2220.5
2015-Aug-25 22:29N 43°22' E 008°05'1615.1
2015-Aug-25 21:25N 43°29' E 008°25'73 9.1
2015-Aug-25 13:26N 44°06' E 009°51'0 0.0
2015-Aug-25 12:32N 44°06' E 009°51'292 9.0
2015-Aug-24 04:11N 40°04' E 013°29'1421.6
2015-Aug-24 03:34N 39°55' E 013°42'9021.5
2015-Aug-23 23:23N 38°60' E 015°14'1821.3
2015-Aug-23 22:33N 38°47' E 015°29'2121.5
2015-Aug-23 21:33N 38°31' E 015°48'7 6.6
2015-Aug-23 20:33N 38°27' E 015°54'0 0.0
2015-Aug-23 19:34N 38°27' E 015°54'0 0.0
2015-Aug-23 18:34N 38°27' E 015°54'0 0.0
2015-Aug-23 17:33N 38°27' E 015°54'0 0.0
2015-Aug-23 16:34N 38°27' E 015°54'0 0.0
2015-Aug-23 15:33N 38°27' E 015°54'0 0.0
2015-Aug-23 14:34N 38°27' E 015°54'0 0.0
2015-Aug-23 13:34N 38°27' E 015°54'0 0.0
2015-Aug-23 12:33N 38°27' E 015°54'0 0.0
2015-Aug-23 11:33N 38°27' E 015°54'0 0.0
2015-Aug-23 10:34N 38°27' E 015°54'0 0.0
2015-Aug-23 09:33N 38°27' E 015°54'0 0.0
2015-Aug-23 08:34N 38°27' E 015°54'0 0.0
2015-Aug-23 07:33N 38°27' E 015°54'0 0.0
2015-Aug-23 06:33N 38°27' E 015°54'0 0.0
2015-Aug-23 05:33N 38°27' E 015°54'0 0.0
2015-Aug-23 04:33N 38°27' E 015°54'138 9.8
2015-Aug-22 14:24N 40°20' E 014°11'1112.8
2015-Aug-22 13:34N 40°29' E 014°05'1212.0
2015-Aug-22 12:33N 40°40' E 014°11'11 3.6
2015-Aug-22 09:32N 40°50' E 014°17'0 0.0
2015-Aug-22 08:26N 40°50' E 014°17'0 0.0
2015-Aug-22 07:33N 40°50' E 014°17'0 0.3
2015-Aug-22 06:19N 40°50' E 014°17'6 8.5
2015-Aug-22 05:33N 40°45' E 014°13'1313.3
2015-Aug-22 04:33N 40°36' E 013°59'2019.6
2015-Aug-22 03:33N 40°26' E 013°37'26620.2
2015-Aug-21 14:26N 38°24' E 008°31'23020.3
2015-Aug-21 03:08N 37°31' E 003°48'1219.8
2015-Aug-21 02:33N 37°28' E 003°34'8420.0
2015-Aug-20 22:21N 37°08' E 001°51'1720.1
2015-Aug-20 21:30N 37°05' E 001°30'2020.6
2015-Aug-20 20:33N 36°60' E 001°07'4919.7
2015-Aug-20 18:03N 36°48' E 000°07'2919.2
2015-Aug-20 16:33N 36°41' W 000°28'2019.4
2015-Aug-20 15:31N 36°37' W 000°53'2019.7
2015-Aug-20 14:29N 36°32' W 001°17'27416.0
2015-Aug-19 21:21N 35°60' W 006°55'1114.3
2015-Aug-19 20:33N 36°01' W 007°09'1414.0
2015-Aug-19 19:33N 36°04' W 007°26'1414.0
2015-Aug-19 18:33N 36°07' W 007°43'1414.0
2015-Aug-19 17:33N 36°09' W 007°60'3015.2
2015-Aug-19 15:33N 36°15' W 008°37'2019.8
2015-Aug-19 14:33N 36°21' W 009°00'2019.7
2015-Aug-19 13:33N 36°25' W 009°24'1919.3
2015-Aug-19 12:33N 36°32' W 009°47'2619.4
2015-Aug-19 11:14N 36°41' W 010°16'6219.9
2015-Aug-19 08:08N 37°08' W 011°26'1319.4
2015-Aug-19 07:29N 37°14' W 011°40'1819.2
2015-Aug-19 06:33N 37°21' W 012°01'  

Dump ship's entire track history